This is the latest recevied weather packets stored in our database for station/object G4KVI. If no packets are shown the sender has not sent any weather packets the latest 10 day(s).
| Time | Temp. | Humidity | Pressure | Rain* | Wind** | Luminosity | Snow |
|---|---|---|---|---|---|---|---|
| 1777807806 | 16.11° C | 65% | 1011.7 hPa | 0 mm | - | 216 W/m² | - |
| 1777807506 | 16.11° C | 64% | 1011.8 hPa | 0 mm | - | 225 W/m² | - |
| 1777807206 | 16.11° C | 64% | 1011.8 hPa | 0 mm | - | 256 W/m² | - |
| 1777806906 | 16.11° C | 62% | 1011.9 hPa | 0 mm | - | 674 W/m² | - |
| 1777806606 | 16.67° C | 62% | 1011.7 hPa | 0 mm | - | 293 W/m² | - |
| 1777806306 | 17.22° C | 59% | 1011.6 hPa | 0 mm | - | 238 W/m² | - |
| 1777806006 | 17.78° C | 59% | 1011.7 hPa | 0 mm | - | 891 W/m² | - |
| 1777805706 | 18.33° C | 58% | 1011.7 hPa | 0 mm | - | 894 W/m² | - |
| 1777805406 | 17.78° C | 62% | 1011.7 hPa | 0 mm | - | 872 W/m² | - |
| 1777805106 | 17.78° C | 61% | 1011.8 hPa | 0 mm | - | 960 W/m² | - |
| 1777804806 | 17.78° C | 65% | 1011.8 hPa | 0 mm | - | 332 W/m² | - |
| 1777804506 | 17.78° C | 63% | 1012 hPa | 0 mm | - | 395 W/m² | - |
| 1777804206 | 17.78° C | 63% | 1011.8 hPa | 0 mm | - | 848 W/m² | - |
| 1777803906 | 16.67° C | 65% | 1012.1 hPa | 0 mm | - | 908 W/m² | - |
| 1777803606 | 17.22° C | 63% | 1011.9 hPa | 0 mm | - | 886 W/m² | - |
| 1777803306 | 17.22° C | 62% | 1011.9 hPa | 0 mm | - | 877 W/m² | - |
| 1777803006 | 17.22° C | 63% | 1012.2 hPa | 0 mm | - | 872 W/m² | - |
| 1777802706 | 17.22° C | 66% | 1012 hPa | 0 mm | - | 814 W/m² | - |
| 1777802406 | 16.11° C | 69% | 1011.9 hPa | 0 mm | - | 796 W/m² | - |
| 1777802106 | 16.11° C | 68% | 1011.9 hPa | 0 mm | - | 565 W/m² | - |
| 1777801806 | 16.11° C | 67% | 1011.9 hPa | 0 mm | - | 766 W/m² | - |
| 1777801506 | 15.56° C | 72% | 1011.9 hPa | 0 mm | - | 813 W/m² | - |
| 1777801206 | 15.56° C | 69% | 1012 hPa | 0 mm | - | 386 W/m² | - |
| 1777800906 | 15.56° C | 69% | 1012 hPa | 0 mm | - | 545 W/m² | - |
| 1777800605 | 15.56° C | 68% | 1012.1 hPa | 0 mm | - | 619 W/m² | - |
* Rain latest hour (hover to see other rain measurements)
** Current wind speed in m/s (hover to see current wind gust speed)